Terminal Aerodrome Forecast
Issued by NWS

Home | Current Version | Previous Version | Graphics & Text | Print | Product List | Glossary Off
Versions: 1 2 3 4 5 6 7 8 9 10 11 12 13 14 15 16 17 18 19

000
FTUS43 KDDC 241120
TAFHYS
TAF
KHYS 241120Z 2412/2512 VRB04KT P6SM BKN200
     FM241500 05009KT P6SM VCSH OVC150
     FM242000 05007KT P6SM SCT100 BKN200
     FM250300 05007KT P6SM -SHRA OVC050
     FM250600 06009KT 4SM BR VCSH OVC030
     FM250900 05010KT 3SM BR VCSH OVC009=

USA.gov is the U.S. government's official web portal to all federal, state and local government web resources and services.